Time;durP1;ratioP1;P1;durP2;ratioP2;P2;SDS_P1;SDS_P2;PMS_P1;PMS_P2;Temp;Humidity;BMP_temperature;BMP_pressure;BME280_temperature;BME280_humidity;BME280_pressure;Samples;Min_cycle;Max_cycle;Signal;HPM_P1;HPM_P2
2022/08/29 00:00:35;;;;;;;;;;;19.40;99.60;;;;;;4932263;28;20618;-82
2022/08/29 00:03:05;;;;;;;;;;;19.40;99.60;;;;;;4948571;28;19990;-82
2022/08/29 00:05:33;;;;;;;;;;;19.40;99.60;;;;;;4938127;28;20345;-82
2022/08/29 00:08:00;;;;;;;;;;;19.40;99.60;;;;;;4942872;28;19927;-82
2022/08/29 00:10:28;;;;;;;;;;;19.30;99.50;;;;;;4928987;29;19926;-82
2022/08/29 00:12:54;;;;;;;;;;;19.30;99.50;;;;;;4931926;28;20021;-81
2022/08/29 00:15:22;;;;;;;;;;;19.30;99.50;;;;;;4949212;29;19926;-82
2022/08/29 00:17:49;;;;;;;;;;;19.30;99.50;;;;;;4946418;28;20033;-81
2022/08/29 00:20:18;;;;;;;;;;;19.30;99.50;;;;;;4953973;28;19930;-81
2022/08/29 00:22:45;;;;;;;;;;;19.30;99.50;;;;;;4943329;29;19981;-82
2022/08/29 00:25:13;;;;;;;;;;;19.20;99.80;;;;;;4946057;29;19927;-82
2022/08/29 00:27:40;;;;;;;;;;;19.20;99.50;;;;;;4936864;29;20440;-81
2022/08/29 00:30:07;;;;;;;;;;;19.20;99.50;;;;;;4946617;28;20029;-81
2022/08/29 00:32:35;;;;;;;;;;;19.20;99.40;;;;;;4954092;28;20001;-82
2022/08/29 00:35:02;;;;;;;;;;;19.10;99.40;;;;;;4951613;28;20014;-82
2022/08/29 00:37:30;;;;;;;;;;;19.10;99.40;;;;;;4953861;29;19930;-82
2022/08/29 00:39:57;;;;;;;;;;;19.10;99.40;;;;;;4953356;28;20017;-82
2022/08/29 00:42:24;;;;;;;;;;;19.10;99.40;;;;;;4952541;28;19926;-81
2022/08/29 00:44:51;;;;;;;;;;;19.10;99.40;;;;;;4953922;29;19984;-82
2022/08/29 00:47:19;;;;;;;;;;;19.10;99.30;;;;;;4949799;28;19927;-82
2022/08/29 00:49:48;;;;;;;;;;;19.00;99.30;;;;;;4951471;29;19982;-82
2022/08/29 00:52:17;;;;;;;;;;;19.00;99.30;;;;;;4938998;29;20530;-82
2022/08/29 00:54:49;;;;;;;;;;;19.00;99.30;;;;;;4929665;29;19986;-81
2022/08/29 00:57:17;;;;;;;;;;;19.00;99.30;;;;;;4937854;29;19997;-82
2022/08/29 00:59:44;;;;;;;;;;;19.00;99.30;;;;;;4933347;29;20309;-81
2022/08/29 01:02:11;;;;;;;;;;;18.90;99.20;;;;;;4947607;28;19934;-82
2022/08/29 01:04:39;;;;;;;;;;;18.90;99.20;;;;;;4938599;28;19926;-82
2022/08/29 01:07:06;;;;;;;;;;;18.90;99.20;;;;;;4937425;29;19927;-83
2022/08/29 01:09:35;;;;;;;;;;;18.90;99.20;;;;;;4936335;29;19933;-83
2022/08/29 01:12:18;;;;;;;;;;;18.80;99.20;;;;;;4950285;28;20021;-82
2022/08/29 01:14:48;;;;;;;;;;;18.80;99.10;;;;;;4955759;28;19942;-82
2022/08/29 01:17:17;;;;;;;;;;;18.80;99.20;;;;;;4938408;28;19986;-82
2022/08/29 01:19:47;;;;;;;;;;;18.80;99.10;;;;;;4938030;28;19937;-82
2022/08/29 01:22:20;;;;;;;;;;;18.80;99.20;;;;;;4942585;28;19927;-82
2022/08/29 01:24:49;;;;;;;;;;;18.80;99.20;;;;;;4950967;28;19950;-82
2022/08/29 01:27:17;;;;;;;;;;;18.70;99.10;;;;;;4950758;29;19944;-82
2022/08/29 01:29:44;;;;;;;;;;;18.70;99.10;;;;;;4943191;28;19936;-81
2022/08/29 01:32:11;;;;;;;;;;;18.70;99.10;;;;;;4945887;28;20467;-83
2022/08/29 01:34:39;;;;;;;;;;;18.70;99.10;;;;;;4946325;28;19934;-81
2022/08/29 01:37:07;;;;;;;;;;;18.70;99.20;;;;;;4933112;29;19926;-82
2022/08/29 01:39:35;;;;;;;;;;;18.70;99.20;;;;;;4948176;28;20367;-82
2022/08/29 01:42:06;;;;;;;;;;;18.60;99.10;;;;;;4956171;28;19934;-82
2022/08/29 01:44:32;;;;;;;;;;;18.60;99.10;;;;;;4944818;28;19931;-81
2022/08/29 01:47:00;;;;;;;;;;;18.60;99.10;;;;;;4945332;28;19958;-82
2022/08/29 01:49:27;;;;;;;;;;;18.60;99.10;;;;;;4936574;29;19930;-81
2022/08/29 01:51:54;;;;;;;;;;;18.60;99.10;;;;;;4951283;28;19933;-81
2022/08/29 01:54:21;;;;;;;;;;;18.50;99.10;;;;;;4943048;28;20025;-83
2022/08/29 01:56:49;;;;;;;;;;;18.50;98.90;;;;;;4925492;29;20444;-82
2022/08/29 01:59:19;;;;;;;;;;;18.50;98.90;;;;;;4935840;29;19930;-81
2022/08/29 02:01:49;;;;;;;;;;;18.50;98.90;;;;;;4950196;29;19927;-82
2022/08/29 02:04:16;;;;;;;;;;;18.50;98.90;;;;;;4934907;28;19933;-81
2022/08/29 02:06:44;;;;;;;;;;;18.40;98.90;;;;;;4951043;28;19989;-82
2022/08/29 02:09:11;;;;;;;;;;;18.40;98.90;;;;;;4937503;28;19927;-82
2022/08/29 02:11:38;;;;;;;;;;;18.40;98.90;;;;;;4949347;28;20029;-82
2022/08/29 02:14:05;;;;;;;;;;;18.40;98.90;;;;;;4950406;28;19935;-82
2022/08/29 02:16:34;;;;;;;;;;;18.40;98.90;;;;;;4949875;28;20039;-82
2022/08/29 02:19:00;;;;;;;;;;;18.30;98.80;;;;;;4947621;28;19983;-82
2022/08/29 02:21:29;;;;;;;;;;;18.30;98.80;;;;;;4947818;28;19926;-82
2022/08/29 02:23:56;;;;;;;;;;;18.30;98.80;;;;;;4951589;28;19930;-83
2022/08/29 02:26:23;;;;;;;;;;;18.30;98.80;;;;;;4945772;29;19981;-81
2022/08/29 02:28:51;;;;;;;;;;;18.30;98.80;;;;;;4947053;28;19975;-82
2022/08/29 02:31:19;;;;;;;;;;;18.20;98.70;;;;;;4931121;29;19940;-82
2022/08/29 02:33:47;;;;;;;;;;;18.20;98.80;;;;;;4951805;28;19934;-82
2022/08/29 02:36:14;;;;;;;;;;;18.20;98.70;;;;;;4944806;28;19950;-82
2022/08/29 02:38:41;;;;;;;;;;;18.10;98.70;;;;;;4932110;29;20460;-81
2022/08/29 02:41:08;;;;;;;;;;;18.20;98.80;;;;;;4934011;28;19977;-81
2022/08/29 02:43:35;;;;;;;;;;;18.10;98.80;;;;;;4936601;28;19930;-82
2022/08/29 02:46:01;;;;;;;;;;;18.10;98.70;;;;;;4936526;29;20472;-82
2022/08/29 02:48:28;;;;;;;;;;;18.10;98.70;;;;;;4948154;28;19974;-82
2022/08/29 02:50:57;;;;;;;;;;;18.10;98.80;;;;;;4946911;28;19927;-82
2022/08/29 02:53:25;;;;;;;;;;;18.10;98.70;;;;;;4955245;28;19926;-82
2022/08/29 02:55:53;;;;;;;;;;;18.10;98.80;;;;;;4948091;28;19926;-82
2022/08/29 02:58:20;;;;;;;;;;;18.10;98.80;;;;;;4949207;28;19927;-82
2022/08/29 03:00:46;;;;;;;;;;;18.10;98.80;;;;;;4930756;28;19926;-82
2022/08/29 03:03:13;;;;;;;;;;;18.00;98.80;;;;;;4937200;29;19930;-82
2022/08/29 03:05:40;;;;;;;;;;;18.00;98.80;;;;;;4948556;28;20278;-83
2022/08/29 03:08:12;;;;;;;;;;;18.00;98.90;;;;;;4933232;29;20048;-82
2022/08/29 03:10:39;;;;;;;;;;;17.90;98.70;;;;;;4947878;28;19933;-83
2022/08/29 03:13:06;;;;;;;;;;;17.90;98.80;;;;;;4945368;28;19930;-82
2022/08/29 03:15:33;;;;;;;;;;;17.90;98.80;;;;;;4931144;29;19926;-83
2022/08/29 03:18:00;;;;;;;;;;;17.80;98.70;;;;;;4939532;28;20348;-82
2022/08/29 03:20:27;;;;;;;;;;;17.80;98.80;;;;;;4940595;29;19931;-83
2022/08/29 03:22:54;;;;;;;;;;;17.80;98.80;;;;;;4949274;28;19933;-82
2022/08/29 03:25:23;;;;;;;;;;;17.80;98.70;;;;;;4942235;28;19938;-82
2022/08/29 03:27:50;;;;;;;;;;;17.70;98.70;;;;;;4946765;28;19942;-83
2022/08/29 03:30:17;;;;;;;;;;;17.70;98.80;;;;;;4927275;29;20362;-82
2022/08/29 03:32:44;;;;;;;;;;;17.60;98.70;;;;;;4929867;28;19961;-82
2022/08/29 03:35:12;;;;;;;;;;;17.60;98.90;;;;;;4946886;28;20001;-82
2022/08/29 03:37:40;;;;;;;;;;;17.70;98.90;;;;;;4933534;28;19926;-83
2022/08/29 03:40:08;;;;;;;;;;;17.60;98.80;;;;;;4945757;28;20049;-82
2022/08/29 03:42:36;;;;;;;;;;;17.60;98.90;;;;;;4948047;28;19930;-82
2022/08/29 03:45:03;;;;;;;;;;;17.60;98.90;;;;;;4937684;29;19946;-83
2022/08/29 03:47:30;;;;;;;;;;;17.60;98.90;;;;;;4944118;28;19931;-82
2022/08/29 03:49:57;;;;;;;;;;;17.50;98.90;;;;;;4951120;29;19926;-83
2022/08/29 03:52:24;;;;;;;;;;;17.50;98.90;;;;;;4948297;28;19927;-83
2022/08/29 03:54:51;;;;;;;;;;;17.40;99.10;;;;;;4944587;28;19927;-82
2022/08/29 03:57:18;;;;;;;;;;;17.40;99.20;;;;;;4950032;28;19957;-83
2022/08/29 03:59:47;;;;;;;;;;;17.30;99.20;;;;;;4947786;28;20390;-82
2022/08/29 04:02:13;;;;;;;;;;;17.30;99.30;;;;;;4937982;29;19965;-82
2022/08/29 04:07:25;;;;;;;;;;;17.20;99.40;;;;;;4936762;29;19966;-82
2022/08/29 04:09:52;;;;;;;;;;;17.20;99.40;;;;;;4973584;29;19937;-83
2022/08/29 04:12:19;;;;;;;;;;;17.20;99.30;;;;;;4969821;28;19930;-83
2022/08/29 04:14:48;;;;;;;;;;;17.30;99.30;;;;;;4970954;28;19930;-83
2022/08/29 04:17:14;;;;;;;;;;;17.20;99.20;;;;;;4959826;29;19917;-83
2022/08/29 04:19:41;;;;;;;;;;;17.20;99.20;;;;;;4975105;28;20410;-83
2022/08/29 04:22:08;;;;;;;;;;;17.20;99.10;;;;;;4966033;28;19986;-83
2022/08/29 04:24:35;;;;;;;;;;;17.20;99.30;;;;;;4950732;28;19926;-82
2022/08/29 04:27:02;;;;;;;;;;;17.20;99.30;;;;;;4957149;28;19989;-83
2022/08/29 04:29:29;;;;;;;;;;;17.20;99.30;;;;;;4943143;29;19930;-82
2022/08/29 04:31:57;;;;;;;;;;;17.10;99.30;;;;;;4958245;29;19965;-82
2022/08/29 04:34:24;;;;;;;;;;;17.10;99.30;;;;;;4956760;28;19934;-82
2022/08/29 04:36:51;;;;;;;;;;;17.10;99.40;;;;;;4951276;28;19926;-82
2022/08/29 04:39:18;;;;;;;;;;;17.10;99.50;;;;;;4941889;28;19930;-83
2022/08/29 04:41:44;;;;;;;;;;;17.10;99.50;;;;;;4953008;29;19973;-83
2022/08/29 04:44:12;;;;;;;;;;;17.00;99.40;;;;;;4951849;28;19946;-83
2022/08/29 04:46:39;;;;;;;;;;;17.00;99.60;;;;;;4953026;28;19997;-81
2022/08/29 04:49:07;;;;;;;;;;;17.00;99.70;;;;;;4957458;28;20353;-83
2022/08/29 04:51:35;;;;;;;;;;;17.00;99.80;;;;;;4956148;28;20013;-82
2022/08/29 04:54:02;;;;;;;;;;;17.00;99.70;;;;;;4949321;28;19934;-83
2022/08/29 04:56:29;;;;;;;;;;;17.00;99.60;;;;;;4956665;28;20044;-83
2022/08/29 04:58:56;;;;;;;;;;;17.00;99.60;;;;;;4939423;29;19942;-82
2022/08/29 05:01:24;;;;;;;;;;;17.00;99.70;;;;;;4955805;29;20008;-83
2022/08/29 05:03:53;;;;;;;;;;;16.90;99.80;;;;;;4937971;29;20352;-83
2022/08/29 05:06:22;;;;;;;;;;;16.90;99.90;;;;;;4939201;29;20006;-82
2022/08/29 05:08:49;;;;;;;;;;;16.90;99.90;;;;;;4953894;29;19926;-82
2022/08/29 05:11:18;;;;;;;;;;;16.90;99.90;;;;;;4957376;28;19927;-82
2022/08/29 05:13:45;;;;;;;;;;;16.90;99.90;;;;;;4948183;29;19974;-81
2022/08/29 05:16:13;;;;;;;;;;;16.90;99.90;;;;;;4955842;28;19965;-82
2022/08/29 05:18:43;;;;;;;;;;;16.90;99.90;;;;;;4950707;28;19951;-83
2022/08/29 05:21:11;;;;;;;;;;;16.90;99.90;;;;;;4948232;28;19927;-83
2022/08/29 05:23:39;;;;;;;;;;;16.90;99.80;;;;;;4932326;29;20080;-83
2022/08/29 05:26:06;;;;;;;;;;;16.90;99.90;;;;;;4946630;28;19926;-83
2022/08/29 05:28:34;;;;;;;;;;;16.80;99.90;;;;;;4948739;28;19931;-82
2022/08/29 05:31:01;;;;;;;;;;;16.80;99.90;;;;;;4946070;28;19930;-82
2022/08/29 05:33:27;;;;;;;;;;;16.80;99.90;;;;;;4931140;29;20412;-82
2022/08/29 05:35:57;;;;;;;;;;;16.80;99.90;;;;;;4946896;29;20310;-82
2022/08/29 05:38:24;;;;;;;;;;;16.70;99.90;;;;;;4934770;29;19974;-83
2022/08/29 05:40:52;;;;;;;;;;;16.70;99.90;;;;;;4933803;29;19978;-82
2022/08/29 05:43:19;;;;;;;;;;;16.70;99.90;;;;;;4937942;29;19926;-82
2022/08/29 05:45:46;;;;;;;;;;;16.70;99.90;;;;;;4950583;28;19997;-83
2022/08/29 05:48:16;;;;;;;;;;;16.70;99.90;;;;;;4935267;29;19927;-82
2022/08/29 05:50:43;;;;;;;;;;;16.60;99.90;;;;;;4935200;29;19981;-83
2022/08/29 05:53:10;;;;;;;;;;;16.60;99.90;;;;;;4952567;28;19926;-82
2022/08/29 05:55:39;;;;;;;;;;;16.60;99.90;;;;;;4951661;28;19933;-82
2022/08/29 05:58:07;;;;;;;;;;;16.60;99.90;;;;;;4936823;29;19926;-82
2022/08/29 06:00:34;;;;;;;;;;;16.60;99.90;;;;;;4942633;29;19927;-82
2022/08/29 06:03:00;;;;;;;;;;;16.60;99.90;;;;;;4932483;28;19934;-83
2022/08/29 06:05:27;;;;;;;;;;;16.60;99.90;;;;;;4951351;28;19926;-82
2022/08/29 06:07:54;;;;;;;;;;;16.50;99.90;;;;;;4940467;29;20024;-83
2022/08/29 06:10:21;;;;;;;;;;;16.50;99.90;;;;;;4946007;29;19927;-82
2022/08/29 06:12:48;;;;;;;;;;;16.50;99.90;;;;;;4948075;28;19968;-82
2022/08/29 06:15:16;;;;;;;;;;;16.50;99.90;;;;;;4939781;29;20011;-83
2022/08/29 06:17:43;;;;;;;;;;;16.50;99.90;;;;;;4947462;28;19989;-82
2022/08/29 06:20:12;;;;;;;;;;;16.50;99.90;;;;;;4935219;29;19926;-83
2022/08/29 06:22:39;;;;;;;;;;;16.50;99.90;;;;;;4949562;28;19931;-84
2022/08/29 06:25:07;;;;;;;;;;;16.50;99.90;;;;;;4934708;28;19927;-82
2022/08/29 06:27:34;;;;;;;;;;;16.50;99.90;;;;;;4949005;29;20024;-82
2022/08/29 06:30:02;;;;;;;;;;;16.50;99.90;;;;;;4942673;28;19931;-83
2022/08/29 06:32:30;;;;;;;;;;;16.50;99.90;;;;;;4940804;29;19993;-82
2022/08/29 06:34:57;;;;;;;;;;;16.50;99.90;;;;;;4946163;28;20527;-82
2022/08/29 06:37:24;;;;;;;;;;;16.60;99.90;;;;;;4944571;28;19927;-82
2022/08/29 06:39:51;;;;;;;;;;;16.60;99.90;;;;;;4948335;28;19997;-82
2022/08/29 06:42:22;;;;;;;;;;;16.50;99.90;;;;;;4950477;28;19934;-83
2022/08/29 06:44:49;;;;;;;;;;;16.60;99.90;;;;;;4944556;28;19946;-81
2022/08/29 06:47:16;;;;;;;;;;;16.60;99.90;;;;;;4949179;28;19977;-83
2022/08/29 06:49:44;;;;;;;;;;;16.60;99.90;;;;;;4949134;28;20308;-82
2022/08/29 06:52:11;;;;;;;;;;;16.60;99.90;;;;;;4945865;28;19969;-82
2022/08/29 06:54:38;;;;;;;;;;;16.60;99.90;;;;;;4953196;28;19978;-83
2022/08/29 06:57:05;;;;;;;;;;;16.60;99.90;;;;;;4930107;29;19933;-81
2022/08/29 06:59:32;;;;;;;;;;;16.60;99.90;;;;;;4943265;28;19933;-82
2022/08/29 07:01:59;;;;;;;;;;;16.60;99.90;;;;;;4933140;28;20026;-82
2022/08/29 07:04:26;;;;;;;;;;;16.60;99.90;;;;;;4941189;29;20352;-82
2022/08/29 07:06:54;;;;;;;;;;;16.70;99.90;;;;;;4930121;29;19973;-83
2022/08/29 07:09:21;;;;;;;;;;;16.60;99.90;;;;;;4945933;29;19933;-82
2022/08/29 07:11:48;;;;;;;;;;;16.60;99.90;;;;;;4948019;29;19974;-84
2022/08/29 07:14:15;;;;;;;;;;;16.60;99.90;;;;;;4933823;29;19981;-82
2022/08/29 07:16:42;;;;;;;;;;;16.70;99.90;;;;;;4944417;29;19954;-82
2022/08/29 07:19:10;;;;;;;;;;;16.70;99.90;;;;;;4943963;28;19957;-81
2022/08/29 07:21:37;;;;;;;;;;;16.70;99.90;;;;;;4944133;28;19939;-81
2022/08/29 07:24:06;;;;;;;;;;;16.70;99.90;;;;;;4935038;28;19927;-82
2022/08/29 07:26:35;;;;;;;;;;;16.70;99.90;;;;;;4927167;29;19945;-81
2022/08/29 07:29:03;;;;;;;;;;;16.70;99.90;;;;;;4947130;28;19930;-82
2022/08/29 07:31:30;;;;;;;;;;;16.80;99.90;;;;;;4935299;29;19964;-82
2022/08/29 07:33:57;;;;;;;;;;;16.80;99.90;;;;;;4925549;29;20321;-82
2022/08/29 07:36:24;;;;;;;;;;;16.80;99.90;;;;;;4952485;28;20386;-82
2022/08/29 07:38:51;;;;;;;;;;;16.80;99.90;;;;;;4944949;28;19931;-83
2022/08/29 07:41:19;;;;;;;;;;;16.80;99.90;;;;;;4947278;28;19958;-82
2022/08/29 07:43:46;;;;;;;;;;;16.80;99.90;;;;;;4931659;29;19927;-83
2022/08/29 07:46:14;;;;;;;;;;;16.80;99.90;;;;;;4952828;28;19933;-83
2022/08/29 07:48:41;;;;;;;;;;;16.80;99.90;;;;;;4933839;28;19937;-83
2022/08/29 07:51:08;;;;;;;;;;;16.80;99.90;;;;;;4947217;28;19930;-83
2022/08/29 07:53:35;;;;;;;;;;;16.80;99.90;;;;;;4947026;28;19931;-82
2022/08/29 07:56:05;;;;;;;;;;;16.80;99.90;;;;;;4934571;29;19927;-83
2022/08/29 07:58:36;;;;;;;;;;;16.80;99.90;;;;;;4949966;28;19942;-84
2022/08/29 08:01:03;;;;;;;;;;;16.80;99.90;;;;;;4949799;28;19990;-82
2022/08/29 08:03:30;;;;;;;;;;;16.80;99.90;;;;;;4948405;28;20017;-82
2022/08/29 08:05:57;;;;;;;;;;;16.80;99.90;;;;;;4949798;28;19958;-82
2022/08/29 08:08:24;;;;;;;;;;;16.80;99.90;;;;;;4931333;28;19966;-82
2022/08/29 08:10:51;;;;;;;;;;;16.90;99.90;;;;;;4933293;29;19965;-82
2022/08/29 08:13:18;;;;;;;;;;;16.90;99.90;;;;;;4948703;28;19934;-83
2022/08/29 08:15:46;;;;;;;;;;;16.90;99.90;;;;;;4951499;28;20025;-83
2022/08/29 08:18:13;;;;;;;;;;;16.90;99.90;;;;;;4932029;29;19942;-83
2022/08/29 08:20:46;;;;;;;;;;;16.90;99.90;;;;;;4952328;28;19973;-83
2022/08/29 08:23:14;;;;;;;;;;;16.90;99.90;;;;;;4944354;29;19926;-82
2022/08/29 08:25:41;;;;;;;;;;;16.90;99.90;;;;;;4946748;28;19930;-82
2022/08/29 08:28:08;;;;;;;;;;;16.90;99.90;;;;;;4937341;29;19938;-82
2022/08/29 08:30:35;;;;;;;;;;;17.00;99.90;;;;;;4947606;28;20420;-82
2022/08/29 08:33:03;;;;;;;;;;;17.00;99.90;;;;;;4943294;28;19934;-84
2022/08/29 08:35:33;;;;;;;;;;;17.00;99.90;;;;;;4948597;28;19934;-83
2022/08/29 08:38:00;;;;;;;;;;;17.00;99.90;;;;;;4949969;28;19977;-82
2022/08/29 08:40:28;;;;;;;;;;;17.00;99.90;;;;;;4929545;28;20041;-82
2022/08/29 08:42:59;;;;;;;;;;;17.10;99.90;;;;;;4949493;29;20321;-82
2022/08/29 08:45:28;;;;;;;;;;;17.10;99.90;;;;;;4949678;28;20349;-82
2022/08/29 08:47:59;;;;;;;;;;;17.10;99.90;;;;;;4948000;28;19931;-83
2022/08/29 08:50:32;;;;;;;;;;;17.10;99.90;;;;;;4936263;29;19985;-82
2022/08/29 08:53:03;;;;;;;;;;;17.20;99.90;;;;;;4944936;28;19963;-83
2022/08/29 08:55:34;;;;;;;;;;;17.20;99.90;;;;;;4952551;28;19927;-82
2022/08/29 08:58:05;;;;;;;;;;;17.20;99.90;;;;;;4940132;29;20037;-83
2022/08/29 09:00:37;;;;;;;;;;;17.20;99.90;;;;;;4946725;28;19927;-82
2022/08/29 09:03:08;;;;;;;;;;;17.20;99.90;;;;;;4950652;28;19942;-82
2022/08/29 09:05:42;;;;;;;;;;;17.20;99.90;;;;;;4952595;28;19926;-84
2022/08/29 09:08:15;;;;;;;;;;;17.30;99.90;;;;;;4950968;29;19934;-82
2022/08/29 09:10:47;;;;;;;;;;;17.30;99.90;;;;;;4955626;29;19937;-82
2022/08/29 09:13:21;;;;;;;;;;;17.30;99.90;;;;;;4946375;29;19927;-82
2022/08/29 09:15:48;;;;;;;;;;;17.30;99.90;;;;;;4948006;28;20312;-82
2022/08/29 09:18:22;;;;;;;;;;;17.40;99.90;;;;;;4943374;29;19926;-83
2022/08/29 09:20:50;;;;;;;;;;;17.40;99.90;;;;;;4938661;29;19926;-82
2022/08/29 09:23:20;;;;;;;;;;;17.40;99.90;;;;;;4935376;29;19969;-82
2022/08/29 09:25:47;;;;;;;;;;;17.40;99.90;;;;;;4935891;29;19934;-82
2022/08/29 09:28:14;;;;;;;;;;;17.40;99.90;;;;;;4949027;28;19978;-83
2022/08/29 09:30:43;;;;;;;;;;;17.40;99.90;;;;;;4936564;29;19930;-82
2022/08/29 09:33:11;;;;;;;;;;;17.40;99.90;;;;;;4927252;28;19926;-82
2022/08/29 09:35:39;;;;;;;;;;;17.50;99.90;;;;;;4944696;28;20022;-81
2022/08/29 09:38:09;;;;;;;;;;;17.40;99.90;;;;;;4936399;29;19927;-82
2022/08/29 09:40:41;;;;;;;;;;;17.50;99.90;;;;;;4947295;28;19926;-82
2022/08/29 09:43:08;;;;;;;;;;;17.50;99.90;;;;;;4937029;29;19931;-82
2022/08/29 09:45:35;;;;;;;;;;;17.50;99.90;;;;;;4941973;28;20029;-82
2022/08/29 09:48:09;;;;;;;;;;;17.60;99.90;;;;;;4951215;29;19934;-82
2022/08/29 09:50:36;;;;;;;;;;;17.50;99.90;;;;;;4949980;28;19933;-82
2022/08/29 09:53:04;;;;;;;;;;;17.50;99.90;;;;;;4933961;29;19974;-83
2022/08/29 09:55:33;;;;;;;;;;;17.60;99.90;;;;;;4932636;29;19930;-82
2022/08/29 09:58:02;;;;;;;;;;;17.60;99.90;;;;;;4936159;28;19943;-83
2022/08/29 10:00:30;;;;;;;;;;;17.60;99.90;;;;;;4948077;29;19926;-83
2022/08/29 10:02:58;;;;;;;;;;;17.70;99.90;;;;;;4936680;29;19945;-83
2022/08/29 10:05:44;;;;;;;;;;;17.70;99.90;;;;;;4953825;28;19942;-83
2022/08/29 10:08:24;;;;;;;;;;;17.70;99.90;;;;;;4929244;28;19930;-82
2022/08/29 10:10:54;;;;;;;;;;;17.70;99.90;;;;;;4939040;29;19978;-81
2022/08/29 10:13:22;;;;;;;;;;;17.70;99.90;;;;;;4951366;28;19931;-83
2022/08/29 10:15:52;;;;;;;;;;;17.80;99.90;;;;;;4949514;28;19950;-82
2022/08/29 10:18:23;;;;;;;;;;;17.80;99.90;;;;;;4951152;28;19934;-83
2022/08/29 10:20:55;;;;;;;;;;;17.80;99.90;;;;;;4927498;29;19934;-82
2022/08/29 10:23:28;;;;;;;;;;;17.80;99.90;;;;;;4952283;29;19926;-82
2022/08/29 10:25:58;;;;;;;;;;;17.80;99.90;;;;;;4949886;29;19949;-81
2022/08/29 10:28:28;;;;;;;;;;;17.80;99.90;;;;;;4939343;28;20420;-82
2022/08/29 10:30:59;;;;;;;;;;;17.80;99.90;;;;;;4946989;28;19935;-82
2022/08/29 10:33:30;;;;;;;;;;;17.80;99.90;;;;;;4951034;28;19934;-82
2022/08/29 10:35:59;;;;;;;;;;;17.90;99.90;;;;;;4926760;29;19930;-83
2022/08/29 10:38:35;;;;;;;;;;;17.90;99.90;;;;;;4929553;28;19961;-81
2022/08/29 10:41:07;;;;;;;;;;;17.90;99.90;;;;;;4951477;28;19930;-83
2022/08/29 10:43:38;;;;;;;;;;;17.90;99.90;;;;;;4943001;28;19927;-82
2022/08/29 10:46:12;;;;;;;;;;;17.90;99.90;;;;;;4943260;29;19926;-82
2022/08/29 10:48:41;;;;;;;;;;;17.90;99.90;;;;;;4945272;28;19927;-82
2022/08/29 10:51:13;;;;;;;;;;;17.90;99.90;;;;;;4947230;29;19930;-83
2022/08/29 10:53:41;;;;;;;;;;;17.90;99.90;;;;;;4948735;29;20216;-82
2022/08/29 10:56:15;;;;;;;;;;;18.00;99.90;;;;;;4953915;28;20402;-82
2022/08/29 10:58:48;;;;;;;;;;;18.00;99.90;;;;;;4951317;29;19998;-82
2022/08/29 11:01:21;;;;;;;;;;;18.00;99.90;;;;;;4947968;28;19973;-82
2022/08/29 11:03:51;;;;;;;;;;;18.00;99.90;;;;;;4951146;28;19927;-82
2022/08/29 11:06:20;;;;;;;;;;;18.10;99.90;;;;;;4948268;28;20290;-83
2022/08/29 11:08:51;;;;;;;;;;;18.10;99.90;;;;;;4949058;28;19934;-82
2022/08/29 11:11:22;;;;;;;;;;;18.10;99.90;;;;;;4931475;29;19933;-82
2022/08/29 11:13:50;;;;;;;;;;;18.10;99.90;;;;;;4948128;28;19951;-82
2022/08/29 11:16:20;;;;;;;;;;;18.20;99.90;;;;;;4936444;28;19933;-82
2022/08/29 11:18:49;;;;;;;;;;;18.20;99.90;;;;;;4948349;28;19977;-83
2022/08/29 11:21:22;;;;;;;;;;;18.10;99.90;;;;;;4949119;28;19994;-82
2022/08/29 11:23:50;;;;;;;;;;;18.20;99.90;;;;;;4931112;29;19950;-83
2022/08/29 11:26:23;;;;;;;;;;;18.20;99.90;;;;;;4946402;28;19926;-83
2022/08/29 11:28:55;;;;;;;;;;;18.20;99.90;;;;;;4930227;29;19951;-82
2022/08/29 11:31:27;;;;;;;;;;;18.20;99.90;;;;;;4948124;28;19926;-83
2022/08/29 11:33:58;;;;;;;;;;;18.30;99.90;;;;;;4947789;28;19927;-82
2022/08/29 11:36:36;;;;;;;;;;;18.30;99.90;;;;;;4949377;29;20437;-83
2022/08/29 11:39:18;;;;;;;;;;;18.30;99.90;;;;;;4927123;29;19935;-82
2022/08/29 11:41:49;;;;;;;;;;;18.30;99.90;;;;;;4930956;29;19994;-82
2022/08/29 11:44:22;;;;;;;;;;;18.30;99.90;;;;;;4952848;28;20445;-82
2022/08/29 11:46:50;;;;;;;;;;;18.40;99.90;;;;;;4942450;28;19933;-83
2022/08/29 11:49:36;;;;;;;;;;;18.40;99.90;;;;;;4958275;28;19974;-82
2022/08/29 11:52:20;;;;;;;;;;;18.40;99.90;;;;;;4944835;28;19961;-83
2022/08/29 11:54:53;;;;;;;;;;;18.40;99.90;;;;;;4937150;29;19954;-82
2022/08/29 11:57:38;;;;;;;;;;;18.40;99.90;;;;;;4936321;28;20313;-82
2022/08/29 12:00:22;;;;;;;;;;;18.50;99.90;;;;;;4951967;28;19930;-83
2022/08/29 12:02:49;;;;;;;;;;;18.50;99.90;;;;;;4948041;28;19981;-82
2022/08/29 12:05:31;;;;;;;;;;;18.50;99.90;;;;;;4950365;28;20116;-83
2022/08/29 12:08:00;;;;;;;;;;;18.50;99.90;;;;;;4945325;28;20327;-83
2022/08/29 12:10:29;;;;;;;;;;;18.50;99.90;;;;;;4947974;28;19961;-82
2022/08/29 12:12:57;;;;;;;;;;;18.50;99.90;;;;;;4949460;28;19933;-83
2022/08/29 12:15:45;;;;;;;;;;;18.50;99.90;;;;;;4950330;28;19934;-82
2022/08/29 12:18:30;;;;;;;;;;;18.60;99.90;;;;;;4951039;28;19934;-83
2022/08/29 12:21:01;;;;;;;;;;;18.60;99.90;;;;;;4957510;28;19926;-82
2022/08/29 12:23:30;;;;;;;;;;;18.60;99.90;;;;;;4942205;28;19977;-82
2022/08/29 12:25:59;;;;;;;;;;;18.70;99.90;;;;;;4952356;28;19927;-82
2022/08/29 12:28:43;;;;;;;;;;;18.70;99.90;;;;;;4954233;28;19978;-82
2022/08/29 12:31:28;;;;;;;;;;;18.70;99.90;;;;;;4947470;28;19930;-82
2022/08/29 12:34:19;;;;;;;;;;;18.80;99.90;;;;;;4950981;28;20471;-82
2022/08/29 12:36:53;;;;;;;;;;;18.80;99.90;;;;;;4933479;29;19978;-81
2022/08/29 12:39:26;;;;;;;;;;;18.80;99.90;;;;;;4951220;28;19926;-82
2022/08/29 12:42:01;;;;;;;;;;;18.90;99.90;;;;;;4929876;29;20300;-82
2022/08/29 12:44:32;;;;;;;;;;;18.90;99.90;;;;;;4948233;29;19926;-82
2022/08/29 12:47:01;;;;;;;;;;;19.00;99.90;;;;;;4952725;28;20341;-82
2022/08/29 12:49:41;;;;;;;;;;;19.00;99.90;;;;;;4950543;28;19933;-83
2022/08/29 12:52:22;;;;;;;;;;;19.00;99.90;;;;;;4937293;28;19930;-82
2022/08/29 12:54:49;;;;;;;;;;;19.10;99.90;;;;;;4955778;29;20008;-82
2022/08/29 12:57:18;;;;;;;;;;;19.10;99.90;;;;;;4928417;29;20020;-82
2022/08/29 12:59:46;;;;;;;;;;;19.20;99.90;;;;;;4950840;28;19930;-82
2022/08/29 13:02:23;;;;;;;;;;;19.20;99.90;;;;;;4945914;28;19930;-83
2022/08/29 13:04:50;;;;;;;;;;;19.20;99.90;;;;;;4955675;29;19930;-82
2022/08/29 13:07:19;;;;;;;;;;;19.30;99.90;;;;;;4948468;29;20424;-82
2022/08/29 13:09:50;;;;;;;;;;;19.40;99.90;;;;;;4945180;28;19931;-83
2022/08/29 13:12:20;;;;;;;;;;;19.40;99.90;;;;;;4956252;28;19974;-82
2022/08/29 13:14:51;;;;;;;;;;;19.40;99.90;;;;;;4948801;28;19927;-83
2022/08/29 13:17:19;;;;;;;;;;;19.50;99.90;;;;;;4954845;29;19935;-82
2022/08/29 13:20:01;;;;;;;;;;;19.50;99.90;;;;;;4954960;28;19927;-83
2022/08/29 13:22:30;;;;;;;;;;;19.60;99.90;;;;;;4934434;29;19938;-83
2022/08/29 13:25:02;;;;;;;;;;;19.60;99.90;;;;;;4934760;29;19930;-81
2022/08/29 13:27:29;;;;;;;;;;;19.70;99.90;;;;;;4950436;28;19927;-82
2022/08/29 13:29:59;;;;;;;;;;;19.70;99.90;;;;;;4937963;29;20432;-82
2022/08/29 13:32:26;;;;;;;;;;;19.70;99.90;;;;;;4950374;28;19930;-82
2022/08/29 13:35:00;;;;;;;;;;;19.80;99.90;;;;;;4952095;29;19930;-82
2022/08/29 13:37:30;;;;;;;;;;;19.90;99.90;;;;;;4950060;29;19930;-82
2022/08/29 13:40:17;;;;;;;;;;;19.90;99.90;;;;;;4933395;29;20029;-82
2022/08/29 13:42:45;;;;;;;;;;;20.00;99.90;;;;;;4951246;28;20409;-82
2022/08/29 13:45:13;;;;;;;;;;;20.00;99.90;;;;;;4951811;28;19935;-82
2022/08/29 13:47:55;;;;;;;;;;;20.10;99.90;;;;;;4952982;29;19931;-81
2022/08/29 13:50:23;;;;;;;;;;;20.10;99.90;;;;;;4945492;28;19926;-80
2022/08/29 13:52:52;;;;;;;;;;;20.10;99.90;;;;;;4938037;29;19977;-81
2022/08/29 13:55:19;;;;;;;;;;;20.20;99.90;;;;;;4955298;28;19989;-82
2022/08/29 13:57:48;;;;;;;;;;;20.20;99.90;;;;;;4947637;29;20024;-82
2022/08/29 14:00:16;;;;;;;;;;;20.30;99.90;;;;;;4947611;29;19931;-83
2022/08/29 14:02:43;;;;;;;;;;;20.40;99.90;;;;;;4954450;29;19939;-83
2022/08/29 14:05:12;;;;;;;;;;;20.40;99.90;;;;;;4949919;28;19927;-82
2022/08/29 14:07:40;;;;;;;;;;;20.40;99.90;;;;;;4952235;28;19926;-82
2022/08/29 14:10:12;;;;;;;;;;;20.50;99.90;;;;;;4947248;28;19934;-82
2022/08/29 14:12:39;;;;;;;;;;;20.50;99.90;;;;;;4951629;29;19957;-82
2022/08/29 14:15:07;;;;;;;;;;;20.60;99.90;;;;;;4949854;28;20029;-82
2022/08/29 14:17:34;;;;;;;;;;;20.60;99.90;;;;;;4951818;28;19927;-82
2022/08/29 14:20:01;;;;;;;;;;;20.70;99.90;;;;;;4938254;28;19935;-82
2022/08/29 14:22:28;;;;;;;;;;;20.70;99.90;;;;;;4953261;28;20396;-82
2022/08/29 14:24:54;;;;;;;;;;;20.70;99.90;;;;;;4947551;28;19934;-82
2022/08/29 14:27:23;;;;;;;;;;;20.80;99.90;;;;;;4950056;28;20449;-81
2022/08/29 14:29:50;;;;;;;;;;;20.80;99.90;;;;;;4942620;29;19933;-81